Time;durP1;ratioP1;P1;durP2;ratioP2;P2;SDS_P1;SDS_P2;PMS_P1;PMS_P2;Temp;Humidity;BMP_temperature;BMP_pressure;BME280_temperature;BME280_humidity;BME280_pressure;Samples;Min_cycle;Max_cycle;Signal;HPM_P1;HPM_P2
2024/04/08 07:59:12;;;;;;;;;;;;;;;;;;5577079;23;20367;-85
2024/04/08 08:41:51;;;;;;;;;;;;;;;;;;5014607;23;19925;-92
2024/04/08 08:44:19;;;;;;;;;;;;;;;;;;5017583;28;19922;-94
2024/04/08 08:46:44;;;;;;;;;;;;;;;;;;5016258;28;19921;-88
2024/04/08 08:49:10;;;;;;;;;;;;;;;;;;5016211;28;20277;-89
2024/04/08 08:51:36;;;;;;;;;;;;;;;;;;5015989;28;19929;-91
2024/04/08 08:54:01;;;;;;;;;;;;;;;;;;5016664;28;19925;-88
2024/04/08 08:56:28;;;;;;;;;;;;;;;;;;5016196;28;20376;-90
2024/04/08 08:58:55;;;;;;;;;;;;;;;;;;5015719;28;19917;-89
2024/04/08 09:01:21;;;;;;;;;;;;;;;;;;5016160;28;20431;-90
2024/04/08 09:03:47;;;;;;;;;;;;;;;;;;5015882;28;19968;-90
2024/04/08 09:06:12;;;;;;;;;;;;;;;;;;5016139;28;20008;-91
2024/04/08 09:08:38;;;;;;;;;;;;;;;;;;5015515;28;20398;-91
2024/04/08 09:11:07;;;;;;;;;;;;;;;;;;5016144;28;19972;-90
2024/04/08 09:13:32;;;;;;;;;;;;;;;;;;5016151;28;19925;-91
2024/04/08 09:15:58;;;;;;;;;;;;;;;;;;5016729;28;19913;-91
2024/04/08 09:18:23;;;;;;;;;;;;;;;;;;5016064;28;19985;-92
2024/04/08 09:20:49;;;;;;;;;;;;;;;;;;5016075;28;19960;-93
2024/04/08 09:23:15;;;;;;;;;;;;;;;;;;5018063;28;19948;-94
2024/04/08 09:25:40;;;;;;;;;;;;;;;;;;5015918;28;19968;-92
2024/04/08 09:28:07;;;;;;;;;;;;;;;;;;5018408;28;19917;-92
2024/04/08 09:30:33;;;;;;;;;;;;;;;;;;5016196;28;20016;-92
2024/04/08 09:32:59;;;;;;;;;;;;;;;;;;5016210;28;20336;-92
2024/04/08 09:35:25;;;;;;;;;;;;;;;;;;5015582;28;20012;-95
2024/04/08 09:37:54;;;;;;;;;;;;;;;;;;5015332;28;19918;-92
2024/04/08 09:40:20;;;;;;;;;;;;;;;;;;4999160;28;19932;-91
2024/04/08 09:42:46;;;;;;;;;;;;;;;;;;5015515;28;19921;-92
2024/04/08 09:45:12;;;;;;;;;;;;;;;;;;5015399;28;20472;-91
2024/04/08 09:47:39;;;;;;;;;;;;;;;;;;5016094;28;19913;-91
2024/04/08 09:50:04;;;;;;;;;;;;;;;;;;5015295;28;19925;-91
2024/04/08 09:52:30;;;;;;;;;;;;;;;;;;5015679;28;19917;-92
2024/04/08 09:54:56;;;;;;;;;;;;;;;;;;5015266;28;19918;-91
2024/04/08 09:57:29;;;;;;;;;;;;;;;;;;5015250;28;19925;-92
2024/04/08 09:59:57;;;;;;;;;;;;;;;;;;5015287;28;20288;-92
2024/04/08 10:02:30;;;;;;;;;;;;;;;;;;5016415;28;19975;-90
2024/04/08 10:04:57;;;;;;;;;;;;;;;;;;4998478;28;19917;-90
2024/04/08 10:07:23;;;;;;;;;;;;;;;;;;5014969;28;20367;-89
2024/04/08 10:09:49;;;;;;;;;;;;;;;;;;5015423;28;19939;-91
2024/04/08 10:12:14;;;;;;;;;;;;;;;;;;5018019;28;19928;-95
2024/04/08 10:14:39;;;;;;;;;;;;;;;;;;5018987;28;19928;-90
2024/04/08 10:17:05;;;;;;;;;;;;;;;;;;5016733;28;19921;-88
2024/04/08 10:19:30;;;;;;;;;;;;;;;;;;5015362;28;19956;-92
2024/04/08 10:21:59;;;;;;;;;;;;;;;;;;5016636;28;19922;-92
2024/04/08 10:24:31;;;;;;;;;;;;;;;;;;5020730;28;19918;-93
2024/04/08 10:27:23;;;;;;;;;;;;;;;;;;5023969;28;19918;-95
2024/04/08 10:29:55;;;;;;;;;;;;;;;;;;5029838;28;19971;-96
2024/04/08 10:32:23;;;;;;;;;;;;;;;;;;5030482;28;19921;-95
2024/04/08 10:34:49;;;;;;;;;;;;;;;;;;5020560;28;19917;-93
2024/04/08 10:37:14;;;;;;;;;;;;;;;;;;5022371;28;19928;-94
2024/04/08 10:39:45;;;;;;;;;;;;;;;;;;5019998;28;19985;-94
2024/04/08 10:42:19;;;;;;;;;;;;;;;;;;5025663;28;19978;-94
2024/04/08 10:44:44;;;;;;;;;;;;;;;;;;5026366;28;19917;-94
2024/04/08 10:47:11;;;;;;;;;;;;;;;;;;5021422;28;20009;-93
2024/04/08 10:49:36;;;;;;;;;;;;;;;;;;5015151;28;20352;-91
2024/04/08 10:52:02;;;;;;;;;;;;;;;;;;5015443;28;19924;-90
2024/04/08 10:54:27;;;;;;;;;;;;;;;;;;5014725;28;20008;-90
2024/04/08 10:56:53;;;;;;;;;;;;;;;;;;5014530;28;20012;-88
2024/04/08 10:59:19;;;;;;;;;;;;;;;;;;5016072;28;19960;-90
2024/04/08 11:01:44;;;;;;;;;;;;;;;;;;5014765;28;19961;-90
2024/04/08 11:04:10;;;;;;;;;;;;;;;;;;5014155;28;19969;-91
2024/04/08 11:06:35;;;;;;;;;;;;;;;;;;5014338;28;19917;-91
2024/04/08 11:09:01;;;;;;;;;;;;;;;;;;5014730;28;19944;-91
2024/04/08 11:11:26;;;;;;;;;;;;;;;;;;5014270;28;20016;-91
2024/04/08 11:13:52;;;;;;;;;;;;;;;;;;5014245;28;20315;-91
2024/04/08 11:16:17;;;;;;;;;;;;;;;;;;5014575;28;20338;-91
2024/04/08 11:18:45;;;;;;;;;;;;;;;;;;5013869;28;20032;-92
2024/04/08 11:21:11;;;;;;;;;;;;;;;;;;5014296;28;20008;-92
2024/04/08 11:23:40;;;;;;;;;;;;;;;;;;5014116;28;20015;-92
2024/04/08 11:26:09;;;;;;;;;;;;;;;;;;5013979;28;20409;-93
2024/04/08 11:28:36;;;;;;;;;;;;;;;;;;5013375;28;19926;-90
2024/04/08 11:31:06;;;;;;;;;;;;;;;;;;5013933;28;19918;-90
2024/04/08 11:33:31;;;;;;;;;;;;;;;;;;5018483;28;19917;-91
2024/04/08 11:35:57;;;;;;;;;;;;;;;;;;5018428;28;20128;-90
2024/04/08 11:38:22;;;;;;;;;;;;;;;;;;5017609;28;20405;-90
2024/04/08 11:40:48;;;;;;;;;;;;;;;;;;5016961;28;20012;-89
2024/04/08 11:43:13;;;;;;;;;;;;;;;;;;5016805;28;19932;-89
2024/04/08 11:45:39;;;;;;;;;;;;;;;;;;5017313;28;20288;-89
2024/04/08 11:48:05;;;;;;;;;;;;;;;;;;5016984;28;19971;-90
2024/04/08 16:48:37;;;;;;;;;;;;;;;;;;5378651;22;19924;-86
2024/04/08 16:51:03;;;;;;;;;;;;;;;;;;5054532;28;20005;-87
2024/04/08 16:53:28;;;;;;;;;;;;;;;;;;5055186;28;19928;-86
2024/04/08 16:55:54;;;;;;;;;;;;;;;;;;5049389;28;20469;-86
2024/04/08 16:58:20;;;;;;;;;;;;;;;;;;5037210;28;19924;-88
2024/04/08 17:00:45;;;;;;;;;;;;;;;;;;5035279;28;20271;-87
2024/04/08 17:03:11;;;;;;;;;;;;;;;;;;5036017;28;19925;-86
2024/04/08 17:05:36;;;;;;;;;;;;;;;;;;5036284;28;19921;-87
2024/04/08 17:08:01;;;;;;;;;;;;;;;;;;5032935;28;19917;-90
2024/04/08 17:10:27;;;;;;;;;;;;;;;;;;5036394;28;19936;-90
2024/04/08 17:12:52;;;;;;;;;;;;;;;;;;5036109;28;20291;-88
2024/04/08 17:15:17;;;;;;;;;;;;;;;;;;5036050;28;19925;-86
2024/04/08 17:17:43;;;;;;;;;;;;;;;;;;5035974;28;19925;-86
2024/04/08 17:20:11;;;;;;;;;;;;;;;;;;5035992;28;19925;-88
2024/04/08 17:22:36;;;;;;;;;;;;;;;;;;5035710;28;20004;-87
2024/04/08 17:25:02;;;;;;;;;;;;;;;;;;5035875;28;20004;-87
2024/04/08 17:27:29;;;;;;;;;;;;;;;;;;5035808;28;19967;-88
2024/04/08 17:29:54;;;;;;;;;;;;;;;;;;5035398;28;19953;-87
2024/04/08 17:32:19;;;;;;;;;;;;;;;;;;5035828;28;20390;-86
2024/04/08 17:34:45;;;;;;;;;;;;;;;;;;5036301;28;19971;-88
2024/04/08 17:37:10;;;;;;;;;;;;;;;;;;5035825;28;20403;-88
2024/04/08 17:39:35;;;;;;;;;;;;;;;;;;5035879;28;19943;-87
2024/04/08 17:42:02;;;;;;;;;;;;;;;;;;5035521;28;19925;-87
2024/04/08 17:44:28;;;;;;;;;;;;;;;;;;5035995;28;19917;-88
2024/04/08 17:46:53;;;;;;;;;;;;;;;;;;5035453;28;19925;-87
2024/04/08 17:49:18;;;;;;;;;;;;;;;;;;5035748;28;19956;-87
2024/04/08 17:51:43;;;;;;;;;;;;;;;;;;5035771;28;19944;-88
2024/04/08 17:54:09;;;;;;;;;;;;;;;;;;5035739;28;19917;-87
2024/04/08 17:56:34;;;;;;;;;;;;;;;;;;5035287;28;19924;-88
2024/04/08 17:59:00;;;;;;;;;;;;;;;;;;5034008;28;19923;-85
2024/04/08 18:01:25;;;;;;;;;;;;;;;;;;5035394;28;19927;-90
2024/04/08 18:03:50;;;;;;;;;;;;;;;;;;5034479;28;19924;-88
2024/04/08 18:06:17;;;;;;;;;;;;;;;;;;5035105;28;19928;-86
2024/04/08 18:08:44;;;;;;;;;;;;;;;;;;5035619;28;19924;-88
2024/04/08 18:11:10;;;;;;;;;;;;;;;;;;5034678;28;19921;-88
2024/04/08 18:13:36;;;;;;;;;;;;;;;;;;5035029;28;20371;-87
2024/04/08 18:16:01;;;;;;;;;;;;;;;;;;5034305;28;19925;-89
2024/04/08 18:18:26;;;;;;;;;;;;;;;;;;5034548;28;20441;-89
2024/04/08 18:21:01;;;;;;;;;;;;;;;;;;5034418;28;19917;-89
2024/04/08 18:23:27;;;;;;;;;;;;;;;;;;5034732;28;19917;-88
2024/04/08 18:25:55;;;;;;;;;;;;;;;;;;5035014;28;19936;-93
2024/04/08 18:28:21;;;;;;;;;;;;;;;;;;5033657;28;19964;-89
2024/04/08 18:30:46;;;;;;;;;;;;;;;;;;5035163;28;19960;-91
2024/04/08 18:33:12;;;;;;;;;;;;;;;;;;5035050;28;19924;-88
2024/04/08 18:35:37;;;;;;;;;;;;;;;;;;5033129;28;19943;-93
2024/04/08 18:38:08;;;;;;;;;;;;;;;;;;5034819;28;19917;-88
2024/04/08 18:40:33;;;;;;;;;;;;;;;;;;5034340;28;19932;-88
2024/04/08 18:42:59;;;;;;;;;;;;;;;;;;5034017;28;19948;-88
2024/04/08 18:45:24;;;;;;;;;;;;;;;;;;5032845;28;19921;-90
2024/04/08 18:47:49;;;;;;;;;;;;;;;;;;5033401;28;19924;-90
2024/04/08 18:50:15;;;;;;;;;;;;;;;;;;5034700;28;20437;-91
2024/04/08 18:52:40;;;;;;;;;;;;;;;;;;5034518;28;20363;-90
2024/04/08 18:55:05;;;;;;;;;;;;;;;;;;5032935;28;19919;-90
2024/04/08 18:57:31;;;;;;;;;;;;;;;;;;5034335;28;20039;-90
2024/04/08 18:59:56;;;;;;;;;;;;;;;;;;5032477;28;20375;-90
2024/04/08 19:03:47;;;;;;;;;;;;;;;;;;5493206;25;19932;-91
2024/04/08 19:06:13;;;;;;;;;;;;;;;;;;5455932;26;19933;-88
2024/04/08 19:08:39;;;;;;;;;;;;;;;;;;5437305;26;19932;-89
2024/04/08 19:11:05;;;;;;;;;;;;;;;;;;5435708;26;19936;-89
2024/04/08 19:13:30;;;;;;;;;;;;;;;;;;5437297;26;20412;-89
2024/04/08 19:16:05;;;;;;;;;;;;;;;;;;5435285;26;19941;-88
2024/04/08 19:18:31;;;;;;;;;;;;;;;;;;5435235;26;19936;-89
2024/04/08 19:20:56;;;;;;;;;;;;;;;;;;5436999;26;19932;-88
2024/04/08 19:23:22;;;;;;;;;;;;;;;;;;5436966;26;19994;-86
2024/04/08 19:25:55;;;;;;;;;;;;;;;;;;5435095;26;19929;-86
2024/04/08 19:28:20;;;;;;;;;;;;;;;;;;5437009;26;19933;-86
2024/04/08 19:30:46;;;;;;;;;;;;;;;;;;5436865;26;20351;-86
2024/04/08 19:33:11;;;;;;;;;;;;;;;;;;5435090;26;20355;-88
2024/04/08 19:35:36;;;;;;;;;;;;;;;;;;5436892;26;20325;-89
2024/04/08 19:38:02;;;;;;;;;;;;;;;;;;5435158;26;20316;-88
2024/04/08 19:40:27;;;;;;;;;;;;;;;;;;5436836;26;19937;-89
2024/04/08 19:42:53;;;;;;;;;;;;;;;;;;5435958;26;19929;-86
2024/04/08 19:45:18;;;;;;;;;;;;;;;;;;5436491;26;19929;-87
2024/04/08 19:47:43;;;;;;;;;;;;;;;;;;5421148;26;19936;-88
2024/04/08 19:50:10;;;;;;;;;;;;;;;;;;5434055;26;19929;-87
2024/04/08 19:52:35;;;;;;;;;;;;;;;;;;5436737;26;19936;-86
2024/04/08 19:55:01;;;;;;;;;;;;;;;;;;5436751;26;19936;-89
2024/04/08 19:57:26;;;;;;;;;;;;;;;;;;5434500;26;20381;-89
2024/04/08 19:59:52;;;;;;;;;;;;;;;;;;5404416;26;19936;-88
2024/04/08 20:02:18;;;;;;;;;;;;;;;;;;5434685;26;20321;-89
2024/04/08 20:04:46;;;;;;;;;;;;;;;;;;5434709;26;20356;-90
2024/04/08 20:07:12;;;;;;;;;;;;;;;;;;5434504;26;19936;-89
2024/04/08 20:09:37;;;;;;;;;;;;;;;;;;5436350;26;19929;-90
2024/04/08 20:12:03;;;;;;;;;;;;;;;;;;5434873;26;20359;-89
2024/04/08 20:14:28;;;;;;;;;;;;;;;;;;5423800;26;19936;-89
2024/04/08 20:16:54;;;;;;;;;;;;;;;;;;5419032;26;19937;-90
2024/04/08 20:19:19;;;;;;;;;;;;;;;;;;5419151;26;19960;-89
2024/04/08 20:21:45;;;;;;;;;;;;;;;;;;5419066;26;19945;-90
2024/04/08 20:24:10;;;;;;;;;;;;;;;;;;5421094;26;19998;-89
2024/04/08 20:26:36;;;;;;;;;;;;;;;;;;5419029;26;19929;-89
2024/04/08 20:29:02;;;;;;;;;;;;;;;;;;5418966;26;19929;-89
2024/04/08 20:31:29;;;;;;;;;;;;;;;;;;5421098;26;19941;-89
2024/04/08 20:33:55;;;;;;;;;;;;;;;;;;5420936;26;19929;-89
2024/04/08 20:36:20;;;;;;;;;;;;;;;;;;5420775;26;19929;-90
2024/04/08 20:38:46;;;;;;;;;;;;;;;;;;5420227;26;19941;-88
2024/04/08 20:41:12;;;;;;;;;;;;;;;;;;5420582;26;19928;-90
2024/04/08 20:43:39;;;;;;;;;;;;;;;;;;5418633;26;19929;-89
2024/04/08 20:46:05;;;;;;;;;;;;;;;;;;5420119;26;19929;-90
2024/04/08 20:48:30;;;;;;;;;;;;;;;;;;5420436;26;20374;-90
2024/04/08 20:50:56;;;;;;;;;;;;;;;;;;5419091;26;19932;-90
2024/04/08 20:53:25;;;;;;;;;;;;;;;;;;5420629;26;19937;-90
2024/04/08 20:55:57;;;;;;;;;;;;;;;;;;5420676;26;19944;-92
2024/04/08 20:58:26;;;;;;;;;;;;;;;;;;5418910;26;20263;-90
2024/04/08 21:00:51;;;;;;;;;;;;;;;;;;5420405;26;20299;-91
2024/04/08 21:03:18;;;;;;;;;;;;;;;;;;5418812;26;19929;-88
